createdAt,value
2018-12-03T00:01:53.952Z,100.00
2018-12-03T00:04:23.266Z,100.00
2018-12-03T00:06:51.849Z,100.00
2018-12-03T00:09:20.247Z,100.00
2018-12-03T00:11:49.316Z,100.00
2018-12-03T00:14:17.516Z,100.00
2018-12-03T00:16:45.881Z,100.00
2018-12-03T00:19:14.030Z,100.00
2018-12-03T00:21:42.322Z,100.00
2018-12-03T00:24:10.536Z,100.00
2018-12-03T00:26:38.657Z,100.00
2018-12-03T00:29:06.945Z,100.00
2018-12-03T00:31:35.210Z,100.00
2018-12-03T00:34:03.498Z,100.00
2018-12-03T00:36:31.694Z,100.00
2018-12-03T00:39:00.365Z,100.00
2018-12-03T00:41:28.495Z,100.00
2018-12-03T00:43:56.869Z,100.00
2018-12-03T00:46:25.117Z,100.00
2018-12-03T00:48:53.654Z,100.00
2018-12-03T00:51:21.812Z,100.00
2018-12-03T00:53:50.928Z,100.00
2018-12-03T00:56:19.265Z,100.00
2018-12-03T00:58:47.396Z,100.00
2018-12-03T01:01:15.673Z,100.00
2018-12-03T01:03:43.900Z,100.00
2018-12-03T01:06:12.065Z,100.00
2018-12-03T01:08:40.257Z,100.00
2018-12-03T01:11:08.577Z,100.00
2018-12-03T01:13:36.960Z,100.00
2018-12-03T01:16:05.476Z,100.00
2018-12-03T01:18:33.613Z,100.00
2018-12-03T01:21:02.027Z,100.00
2018-12-03T01:23:30.206Z,100.00
2018-12-03T01:25:58.391Z,100.00
2018-12-03T01:28:26.533Z,100.00
2018-12-03T01:30:54.808Z,100.00
2018-12-03T01:33:23.018Z,100.00
2018-12-03T01:35:51.169Z,100.00
2018-12-03T01:38:19.455Z,100.00
2018-12-03T01:40:47.681Z,100.00
2018-12-03T01:43:15.849Z,100.00
2018-12-03T01:45:44.000Z,99.61
2018-12-03T01:48:12.489Z,99.34
2018-12-03T01:50:40.658Z,98.82
2018-12-03T01:53:08.926Z,97.62
2018-12-03T01:55:37.112Z,97.13
2018-12-03T01:58:05.510Z,97.69
2018-12-03T02:00:33.789Z,98.12
2018-12-03T02:03:02.215Z,97.10
2018-12-03T02:05:30.623Z,97.59
2018-12-03T02:07:58.865Z,97.14
2018-12-03T02:10:27.042Z,97.11
2018-12-03T02:12:55.252Z,96.71
2018-12-03T02:15:24.492Z,94.95
2018-12-03T02:17:52.610Z,95.33
2018-12-03T02:20:21.358Z,95.33
2018-12-03T02:22:49.499Z,95.87
2018-12-03T02:25:17.669Z,95.26
2018-12-03T02:27:45.926Z,95.02
2018-12-03T02:30:16.472Z,94.21
2018-12-03T02:32:44.778Z,94.33
2018-12-03T02:35:13.905Z,94.42
2018-12-03T02:37:42.062Z,94.93
2018-12-03T02:40:12.489Z,94.78
2018-12-03T02:42:40.722Z,95.15
2018-12-03T02:45:10.762Z,95.67
2018-12-03T02:47:38.970Z,94.41
2018-12-03T02:50:10.267Z,95.83
2018-12-03T02:52:38.616Z,96.53
2018-12-03T02:55:09.118Z,96.58
2018-12-03T02:57:37.373Z,97.24
2018-12-03T03:00:09.314Z,96.66
2018-12-03T03:02:37.575Z,97.26
2018-12-03T03:05:08.000Z,97.35
2018-12-03T03:07:36.271Z,97.24
2018-12-03T03:10:07.267Z,97.93
2018-12-03T03:12:35.391Z,97.35
2018-12-03T03:15:03.865Z,97.54
2018-12-03T03:17:32.062Z,97.83
2018-12-03T03:20:00.472Z,97.96
2018-12-03T03:22:28.802Z,98.02
2018-12-03T03:24:57.670Z,97.56
2018-12-03T03:27:25.970Z,97.58
2018-12-03T03:29:54.182Z,96.94
2018-12-03T03:32:22.319Z,95.21
2018-12-03T03:34:50.460Z,95.13
2018-12-03T03:37:18.646Z,94.07
2018-12-03T03:39:46.953Z,95.17
2018-12-03T03:42:15.102Z,95.26
2018-12-03T03:44:43.257Z,96.51
2018-12-03T03:47:11.431Z,96.36
2018-12-03T03:49:39.601Z,95.02
2018-12-03T03:52:07.898Z,95.56
2018-12-03T03:54:36.075Z,95.89
2018-12-03T03:57:04.440Z,96.25
2018-12-03T03:59:32.566Z,98.33
2018-12-03T04:02:00.776Z,100.00
2018-12-03T04:04:29.644Z,100.00
2018-12-03T04:06:57.957Z,100.00
2018-12-03T04:09:26.135Z,100.00
2018-12-03T04:11:54.300Z,100.00
2018-12-03T04:14:22.721Z,100.00
2018-12-03T04:16:50.934Z,100.00
2018-12-03T04:19:19.136Z,100.00
2018-12-03T04:21:47.331Z,100.00
2018-12-03T04:24:15.598Z,100.00
2018-12-03T04:26:43.878Z,100.00
2018-12-03T04:29:12.423Z,100.00
2018-12-03T04:31:40.753Z,100.00
2018-12-03T04:34:08.933Z,100.00
2018-12-03T04:36:37.150Z,100.00
2018-12-03T04:39:07.703Z,100.00
2018-12-03T04:41:35.944Z,100.00
2018-12-03T04:44:04.534Z,100.00
2018-12-03T04:46:32.847Z,100.00
2018-12-03T04:49:01.243Z,100.00
2018-12-03T04:51:29.426Z,100.00
2018-12-03T04:53:57.612Z,100.00
2018-12-03T04:56:25.941Z,100.00
2018-12-03T04:58:54.115Z,100.00
2018-12-03T05:01:22.323Z,100.00
2018-12-03T05:03:50.677Z,100.00
2018-12-03T05:06:19.077Z,100.00
2018-12-03T05:08:47.367Z,100.00
2018-12-03T05:11:15.958Z,100.00
2018-12-03T05:13:44.086Z,100.00
2018-12-03T05:16:12.313Z,100.00
2018-12-03T05:18:40.500Z,100.00
2018-12-03T05:21:08.645Z,100.00
2018-12-03T05:23:36.774Z,100.00
2018-12-03T05:26:04.950Z,100.00
2018-12-03T05:28:33.269Z,100.00
2018-12-03T05:31:01.778Z,100.00
2018-12-03T05:33:30.139Z,98.28
2018-12-03T05:35:58.302Z,96.48
2018-12-03T05:38:26.609Z,96.27
2018-12-03T05:40:54.903Z,95.36
2018-12-03T05:43:23.027Z,94.05
2018-12-03T05:45:51.217Z,94.08
2018-12-03T05:48:19.394Z,95.17
2018-12-03T05:50:47.565Z,95.30
2018-12-03T05:53:15.733Z,95.87
2018-12-03T05:55:43.911Z,95.22
2018-12-03T05:58:12.075Z,95.51
2018-12-03T06:00:40.271Z,94.60
2018-12-03T06:03:08.416Z,94.84
2018-12-03T06:05:36.547Z,94.31
2018-12-03T06:08:05.013Z,94.33
2018-12-03T06:10:33.134Z,94.06
2018-12-03T06:13:01.350Z,91.93
2018-12-03T06:15:29.612Z,92.29
2018-12-03T06:17:57.784Z,92.68
2018-12-03T06:20:25.963Z,90.98
2018-12-03T06:22:54.818Z,92.07
2018-12-03T06:25:25.478Z,91.71
2018-12-03T06:27:53.845Z,90.87
2018-12-03T06:30:23.068Z,89.58
2018-12-03T06:32:51.298Z,90.19
2018-12-03T06:35:19.865Z,89.79
2018-12-03T06:37:48.383Z,89.75
2018-12-03T06:40:20.642Z,89.66
2018-12-03T06:42:49.039Z,89.73
2018-12-03T06:45:18.589Z,89.25
2018-12-03T06:47:53.163Z,89.66
2018-12-03T06:50:21.483Z,88.79
2018-12-03T06:52:49.916Z,88.77
2018-12-03T06:55:18.203Z,88.94
2018-12-03T06:57:46.331Z,89.62
2018-12-03T07:00:17.746Z,89.94
2018-12-03T07:02:45.921Z,89.75
2018-12-03T07:05:14.217Z,89.45
2018-12-03T07:07:43.396Z,88.79
2018-12-03T07:10:14.646Z,88.53
2018-12-03T07:12:43.108Z,89.61
2018-12-03T07:15:13.019Z,89.18
2018-12-03T07:17:41.205Z,89.12
2018-12-03T07:20:11.529Z,88.67
2018-12-03T07:22:39.966Z,89.21
2018-12-03T07:25:09.351Z,89.69
2018-12-03T07:27:37.767Z,88.78
2018-12-03T07:30:17.945Z,87.53
2018-12-03T07:32:47.327Z,88.84
2018-12-03T07:35:15.829Z,89.23
2018-12-03T07:37:44.166Z,89.55
2018-12-03T07:40:13.034Z,91.73
2018-12-03T07:42:42.093Z,93.92
2018-12-03T07:45:13.351Z,96.14
2018-12-03T07:47:41.529Z,97.67
2018-12-03T07:50:11.968Z,99.45
2018-12-03T07:52:40.507Z,99.12
2018-12-03T07:55:12.772Z,100.00
2018-12-03T07:57:42.501Z,100.00
2018-12-03T08:00:12.754Z,100.00
2018-12-03T08:02:40.978Z,100.00
2018-12-03T08:05:10.073Z,100.00
2018-12-03T08:07:38.587Z,100.00
2018-12-03T08:10:10.839Z,100.00
2018-12-03T08:12:39.031Z,100.00
2018-12-03T08:15:10.394Z,99.65
2018-12-03T08:17:38.783Z,99.65
2018-12-03T08:20:11.170Z,99.29
2018-12-03T08:22:39.549Z,99.46
2018-12-03T08:25:08.299Z,100.00
2018-12-03T08:27:36.477Z,99.82
2018-12-03T08:30:05.349Z,99.29
2018-12-03T08:32:33.770Z,99.26
2018-12-03T08:35:02.235Z,98.13
2018-12-03T08:37:30.537Z,98.33
2018-12-03T08:39:58.681Z,97.41
2018-12-03T08:42:26.931Z,96.88
2018-12-03T08:44:55.086Z,96.73
2018-12-03T08:47:23.394Z,96.94
2018-12-03T08:49:51.513Z,96.52
2018-12-03T08:52:19.930Z,96.27
2018-12-03T08:54:48.174Z,95.33
2018-12-03T08:57:16.359Z,94.84
2018-12-03T08:59:44.537Z,94.62
2018-12-03T09:02:12.670Z,94.18
2018-12-03T09:04:41.285Z,93.98
2018-12-03T09:07:09.644Z,94.30
2018-12-03T09:09:37.998Z,94.21
2018-12-03T09:12:06.896Z,94.57
2018-12-03T09:14:35.498Z,95.50
2018-12-03T09:17:03.767Z,95.94
2018-12-03T09:19:31.867Z,95.42
2018-12-03T09:22:00.287Z,95.61
2018-12-03T09:24:28.708Z,96.11
2018-12-03T09:26:57.003Z,96.66
2018-12-03T09:29:25.214Z,98.47
2018-12-03T09:31:53.542Z,100.00
2018-12-03T09:34:21.720Z,100.00
2018-12-03T09:36:50.053Z,100.00
2018-12-03T09:39:18.632Z,100.00
2018-12-03T09:41:48.397Z,100.00
2018-12-03T09:44:16.618Z,100.00
2018-12-03T09:46:44.774Z,100.00
2018-12-03T09:49:13.007Z,100.00
2018-12-03T09:51:41.287Z,100.00
2018-12-03T09:54:10.654Z,100.00
2018-12-03T09:56:44.995Z,100.00
2018-12-03T09:59:16.533Z,100.00
2018-12-03T10:01:45.961Z,100.00
2018-12-03T10:04:22.343Z,100.00
2018-12-03T10:06:51.096Z,100.00
2018-12-03T10:09:19.238Z,100.00
2018-12-03T10:11:47.580Z,100.00
2018-12-03T10:14:19.011Z,100.00
2018-12-03T10:16:47.529Z,100.00
2018-12-03T10:19:16.001Z,100.00
2018-12-03T10:21:47.146Z,100.00
2018-12-03T10:24:15.871Z,100.00
2018-12-03T10:26:44.038Z,100.00
2018-12-03T10:29:14.690Z,100.00
2018-12-03T10:31:42.862Z,100.00
2018-12-03T10:34:13.269Z,100.00
2018-12-03T10:36:49.177Z,100.00
2018-12-03T10:39:22.238Z,100.00
2018-12-03T10:41:55.483Z,99.27
2018-12-03T10:44:23.938Z,99.68
2018-12-03T10:46:52.390Z,99.23
2018-12-03T10:49:20.771Z,98.72
2018-12-03T10:51:49.030Z,99.29
2018-12-03T10:54:17.219Z,98.54
2018-12-03T10:56:45.501Z,97.46
2018-12-03T10:59:13.697Z,96.54
2018-12-03T11:01:46.930Z,97.90
2018-12-03T11:04:20.496Z,97.86
2018-12-03T11:06:48.878Z,96.78
2018-12-03T11:09:17.470Z,94.60
2018-12-03T11:11:48.790Z,94.96
2018-12-03T11:14:17.409Z,94.20
2018-12-03T11:16:47.255Z,96.77
2018-12-03T11:19:15.558Z,98.58
2018-12-03T11:21:43.703Z,100.00
2018-12-03T11:24:15.927Z,100.00
2018-12-03T11:26:46.022Z,100.00
2018-12-03T11:29:14.594Z,100.00
2018-12-03T11:31:43.039Z,100.00
2018-12-03T11:34:11.287Z,100.00
2018-12-03T11:36:44.071Z,100.00
2018-12-03T11:42:18.413Z,100.00
2018-12-03T11:44:46.691Z,100.00
2018-12-03T11:47:14.883Z,100.00
2018-12-03T11:49:43.384Z,100.00
2018-12-03T11:52:11.651Z,100.00
2018-12-03T11:54:39.955Z,100.00
2018-12-03T11:57:08.527Z,100.00
2018-12-03T11:59:36.971Z,100.00
2018-12-03T12:02:05.633Z,100.00
2018-12-03T12:04:33.882Z,100.00
2018-12-03T12:07:02.307Z,100.00
2018-12-03T12:09:30.600Z,100.00
2018-12-03T12:11:58.886Z,100.00
2018-12-03T12:14:28.195Z,100.00
2018-12-03T12:16:56.473Z,100.00
2018-12-03T12:19:24.669Z,100.00
2018-12-03T12:21:52.834Z,100.00
2018-12-03T12:24:21.334Z,100.00
2018-12-03T12:26:50.364Z,100.00
2018-12-03T12:29:18.644Z,100.00
2018-12-03T12:31:46.884Z,100.00
2018-12-03T12:34:15.070Z,100.00
2018-12-03T12:36:43.415Z,100.00
2018-12-03T12:39:11.582Z,100.00
2018-12-03T12:41:40.893Z,100.00
2018-12-03T12:44:10.589Z,100.00
2018-12-03T12:46:41.178Z,100.00
2018-12-03T12:49:09.461Z,100.00
2018-12-03T12:51:37.647Z,100.00
2018-12-03T12:54:06.046Z,100.00
2018-12-03T12:56:34.527Z,100.00
2018-12-03T12:59:03.348Z,100.00
2018-12-03T13:01:31.798Z,100.00
2018-12-03T13:04:00.058Z,100.00
2018-12-03T13:06:28.491Z,100.00
2018-12-03T13:08:56.739Z,100.00
2018-12-03T13:11:24.999Z,100.00
2018-12-03T13:13:53.477Z,100.00
2018-12-03T13:16:21.759Z,100.00
2018-12-03T13:18:49.920Z,100.00
2018-12-03T13:21:18.361Z,100.00
2018-12-03T13:23:47.011Z,100.00
2018-12-03T13:26:15.713Z,100.00
2018-12-03T13:28:43.994Z,100.00
2018-12-03T13:31:12.131Z,100.00
2018-12-03T13:33:40.314Z,100.00
2018-12-03T13:36:09.907Z,100.00
2018-12-03T13:38:38.089Z,100.00
2018-12-03T13:41:07.026Z,100.00
2018-12-03T13:43:35.378Z,100.00
2018-12-03T13:46:03.554Z,100.00
2018-12-03T13:48:31.774Z,100.00
2018-12-03T13:51:00.108Z,100.00
2018-12-03T13:53:28.352Z,100.00
2018-12-03T13:55:56.516Z,100.00
2018-12-03T13:58:24.782Z,100.00
2018-12-03T14:00:53.020Z,100.00
2018-12-03T14:03:23.243Z,100.00
2018-12-03T14:07:07.457Z,100.00
2018-12-03T14:09:46.402Z,100.00
2018-12-03T14:12:25.135Z,100.00
2018-12-03T14:15:01.103Z,100.00
2018-12-03T14:17:37.281Z,100.00
2018-12-03T14:20:06.986Z,100.00
2018-12-03T14:22:39.631Z,99.29
2018-12-03T14:25:08.058Z,97.93
2018-12-03T14:27:36.174Z,95.86
2018-12-03T14:30:04.821Z,95.31
2018-12-03T14:32:33.170Z,95.65
2018-12-03T14:35:01.404Z,97.05
2018-12-03T14:37:29.705Z,96.57
2018-12-03T14:39:58.009Z,96.91
2018-12-03T14:42:26.162Z,96.79
2018-12-03T14:44:54.303Z,97.05
2018-12-03T14:47:22.615Z,97.46
2018-12-03T14:49:50.770Z,98.39
2018-12-03T14:52:19.074Z,99.08
2018-12-03T14:54:47.242Z,100.00
2018-12-03T14:57:15.454Z,100.00
2018-12-03T14:59:43.626Z,100.00
2018-12-03T15:02:11.826Z,100.00
2018-12-03T15:04:40.001Z,100.00
2018-12-03T15:07:08.422Z,100.00
2018-12-03T15:09:36.562Z,100.00
2018-12-03T15:12:04.936Z,100.00
2018-12-03T15:14:33.358Z,100.00
2018-12-03T15:17:01.760Z,100.00
2018-12-03T15:19:30.041Z,100.00
2018-12-03T15:21:58.253Z,100.00
2018-12-03T15:24:26.431Z,100.00
2018-12-03T15:26:54.798Z,100.00
2018-12-03T15:29:23.125Z,100.00
2018-12-03T15:31:52.015Z,100.00
2018-12-03T15:34:20.376Z,100.00
2018-12-03T15:36:48.519Z,100.00
2018-12-03T15:39:16.889Z,100.00
2018-12-03T15:41:45.113Z,100.00
2018-12-03T15:44:13.352Z,100.00
2018-12-03T15:46:41.620Z,100.00
2018-12-03T15:49:09.806Z,100.00
2018-12-03T15:51:38.077Z,100.00
2018-12-03T15:54:06.311Z,100.00
2018-12-03T15:56:34.571Z,100.00
2018-12-03T15:59:02.853Z,100.00
2018-12-03T16:01:31.124Z,100.00
2018-12-03T16:03:59.354Z,100.00
2018-12-03T16:06:27.654Z,100.00
2018-12-03T16:08:55.803Z,100.00
2018-12-03T16:11:23.930Z,100.00
2018-12-03T16:13:52.091Z,100.00
2018-12-03T16:16:20.268Z,100.00
2018-12-03T16:18:48.685Z,100.00
2018-12-03T16:21:17.011Z,100.00
2018-12-03T16:23:45.311Z,100.00
2018-12-03T16:26:13.430Z,100.00
2018-12-03T16:28:41.583Z,100.00
2018-12-03T16:31:10.033Z,100.00
2018-12-03T16:33:38.450Z,100.00
2018-12-03T16:36:06.865Z,100.00
2018-12-03T16:38:35.079Z,100.00
2018-12-03T16:41:03.413Z,100.00
2018-12-03T16:43:31.835Z,100.00
2018-12-03T16:46:00.056Z,100.00
2018-12-03T16:48:28.226Z,100.00
2018-12-03T16:50:56.514Z,100.00
2018-12-03T16:53:25.341Z,100.00
2018-12-03T16:55:53.566Z,100.00
2018-12-03T16:58:21.819Z,100.00
2018-12-03T17:00:49.981Z,100.00
2018-12-03T17:03:18.113Z,100.00
2018-12-03T17:05:46.292Z,100.00
2018-12-03T17:08:14.568Z,100.00
2018-12-03T17:10:42.778Z,100.00
2018-12-03T17:13:11.023Z,100.00
2018-12-03T17:15:39.172Z,100.00
2018-12-03T17:18:07.335Z,100.00
2018-12-03T17:21:13.112Z,100.00
2018-12-03T17:23:48.979Z,100.00
2018-12-03T17:26:17.112Z,100.00
2018-12-03T17:28:45.311Z,100.00
2018-12-03T17:31:13.562Z,100.00
2018-12-03T17:33:41.719Z,100.00
2018-12-03T17:36:09.841Z,100.00
2018-12-03T17:38:38.171Z,100.00
2018-12-03T17:41:06.455Z,100.00
2018-12-03T17:43:34.613Z,100.00
2018-12-03T17:46:02.940Z,100.00
2018-12-03T17:48:31.191Z,100.00
2018-12-03T17:50:59.462Z,100.00
2018-12-03T17:53:28.161Z,100.00
2018-12-03T17:55:56.411Z,100.00
2018-12-03T17:58:24.653Z,100.00
2018-12-03T18:00:52.806Z,100.00
2018-12-03T18:03:20.986Z,100.00
2018-12-03T18:05:49.126Z,100.00
2018-12-03T18:08:17.416Z,100.00
2018-12-03T18:10:45.607Z,100.00
2018-12-03T18:13:13.868Z,100.00
2018-12-03T18:15:42.263Z,100.00
2018-12-03T18:18:10.747Z,100.00
2018-12-03T18:20:39.139Z,100.00
2018-12-03T18:23:07.322Z,100.00
2018-12-03T18:25:35.553Z,100.00
2018-12-03T18:28:03.858Z,100.00
2018-12-03T18:30:32.347Z,100.00
2018-12-03T18:33:00.763Z,100.00
2018-12-03T18:35:29.695Z,100.00
2018-12-03T18:37:57.955Z,100.00
2018-12-03T18:40:26.152Z,100.00
2018-12-03T18:42:54.510Z,100.00
2018-12-03T18:45:22.731Z,100.00
2018-12-03T18:47:50.940Z,100.00
2018-12-03T18:50:25.566Z,100.00
2018-12-03T18:52:53.739Z,100.00
2018-12-03T18:55:21.990Z,100.00
2018-12-03T18:57:54.145Z,100.00
2018-12-03T19:00:22.289Z,100.00
2018-12-03T19:02:50.523Z,100.00
2018-12-03T19:05:18.795Z,100.00
2018-12-03T19:07:46.930Z,100.00
2018-12-03T19:10:15.178Z,100.00
2018-12-03T19:12:43.604Z,100.00
2018-12-03T19:15:11.894Z,100.00
2018-12-03T19:17:40.111Z,100.00
2018-12-03T19:20:09.274Z,100.00
2018-12-03T19:22:37.475Z,100.00
2018-12-03T19:25:06.888Z,100.00
2018-12-03T19:27:35.554Z,100.00
2018-12-03T19:30:04.139Z,100.00
2018-12-03T19:32:32.314Z,100.00
2018-12-03T19:35:01.365Z,100.00
2018-12-03T19:37:29.845Z,100.00
2018-12-03T19:39:58.183Z,100.00
2018-12-03T19:42:26.695Z,100.00
2018-12-03T19:44:55.090Z,100.00
2018-12-03T19:47:23.412Z,100.00
2018-12-03T19:49:51.561Z,100.00
2018-12-03T19:52:19.762Z,100.00
2018-12-03T19:54:48.662Z,100.00
2018-12-03T19:57:20.702Z,100.00
2018-12-03T19:59:50.606Z,100.00
2018-12-03T20:02:18.815Z,100.00
2018-12-03T20:04:51.037Z,100.00
2018-12-03T20:07:19.204Z,100.00
2018-12-03T20:09:48.556Z,100.00
2018-12-03T20:12:16.998Z,100.00
2018-12-03T20:14:45.212Z,100.00
2018-12-03T20:17:19.425Z,100.00
2018-12-03T20:19:47.586Z,100.00
2018-12-03T20:22:16.616Z,100.00
2018-12-03T20:24:44.886Z,100.00
2018-12-03T20:27:18.062Z,100.00
2018-12-03T20:29:53.278Z,100.00
2018-12-03T20:32:32.278Z,100.00
2018-12-03T20:35:09.473Z,100.00
2018-12-03T20:38:47.618Z,100.00
2018-12-03T20:41:27.146Z,100.00
2018-12-03T20:43:58.435Z,100.00
2018-12-03T20:46:50.589Z,100.00
2018-12-03T20:50:34.739Z,100.00
2018-12-03T20:53:03.219Z,100.00
2018-12-03T20:55:35.688Z,100.00
2018-12-03T20:58:03.904Z,100.00
2018-12-03T21:00:32.162Z,100.00
2018-12-03T21:03:01.333Z,100.00
2018-12-03T21:05:29.514Z,100.00
2018-12-03T21:07:57.933Z,100.00
2018-12-03T21:10:26.069Z,100.00
2018-12-03T21:12:54.235Z,100.00
2018-12-03T21:15:22.486Z,99.97
2018-12-03T21:17:51.100Z,100.00
2018-12-03T21:20:23.304Z,100.00
2018-12-03T21:22:51.427Z,100.00
2018-12-03T21:25:19.925Z,100.00
2018-12-03T21:27:48.280Z,100.00
2018-12-03T21:30:16.531Z,100.00
2018-12-03T21:32:44.954Z,100.00
2018-12-03T21:35:13.338Z,100.00
2018-12-03T21:37:41.764Z,100.00
2018-12-03T21:40:10.095Z,100.00
2018-12-03T21:42:38.271Z,100.00
2018-12-03T21:45:06.875Z,100.00
2018-12-03T21:47:35.262Z,100.00
2018-12-03T21:50:05.908Z,100.00
2018-12-03T21:52:31.920Z,100.00
2018-12-03T21:55:00.112Z,100.00
2018-12-03T21:57:28.346Z,100.00
2018-12-03T22:02:45.486Z,100.00
2018-12-03T22:05:13.962Z,100.00
2018-12-03T22:07:42.126Z,100.00
2018-12-03T22:10:10.385Z,100.00
2018-12-03T22:12:38.590Z,100.00
2018-12-03T22:15:07.822Z,100.00
2018-12-03T22:17:36.306Z,100.00
2018-12-03T22:20:08.667Z,100.00
2018-12-03T22:22:36.964Z,100.00
2018-12-03T22:25:06.179Z,100.00
2018-12-03T22:27:34.343Z,100.00
2018-12-03T22:30:02.822Z,100.00
2018-12-03T22:32:30.997Z,100.00
2018-12-03T22:34:59.418Z,100.00
2018-12-03T22:37:27.692Z,100.00
2018-12-03T22:39:55.975Z,100.00
2018-12-03T22:42:24.144Z,100.00
2018-12-03T22:44:52.341Z,100.00
2018-12-03T22:47:20.560Z,100.00
2018-12-03T22:49:49.114Z,100.00
2018-12-03T22:52:17.441Z,100.00
2018-12-03T22:54:45.794Z,100.00
2018-12-03T22:57:14.130Z,100.00
2018-12-03T22:59:42.531Z,100.00
2018-12-03T23:02:10.791Z,100.00
2018-12-03T23:04:40.171Z,100.00
2018-12-03T23:07:08.524Z,100.00
2018-12-03T23:09:36.947Z,100.00
2018-12-03T23:12:05.295Z,100.00
2018-12-03T23:14:33.475Z,100.00
2018-12-03T23:17:01.738Z,100.00
2018-12-03T23:19:30.025Z,100.00
2018-12-03T23:21:58.263Z,100.00
2018-12-03T23:24:26.543Z,100.00
2018-12-03T23:26:54.829Z,100.00
2018-12-03T23:29:22.958Z,100.00
2018-12-03T23:31:51.223Z,100.00
2018-12-03T23:34:19.369Z,100.00
2018-12-03T23:36:47.630Z,100.00
2018-12-03T23:39:16.079Z,100.00
2018-12-03T23:41:44.285Z,100.00
2018-12-03T23:44:12.527Z,100.00
2018-12-03T23:46:40.825Z,100.00
2018-12-03T23:49:09.022Z,100.00
2018-12-03T23:51:38.193Z,100.00
2018-12-03T23:54:06.379Z,100.00
2018-12-03T23:56:34.578Z,100.00
2018-12-03T23:59:02.912Z,100.00
